Terminal Aerodrome Forecast
Issued by NWS

Home | Current Version | Previous Version | Text Only | Print | Product List | Glossary On
Versions: 1 2 3 4 5 6 7 8 9 10 11 12 13 14 15 16 17 18 19 20 21 22 23
033
FTUS41 KPHI 292337
TAFMIV
TAF
KMIV 292337Z 3000/3024 35003KT P6SM BKN250
     FM300700 07009KT P6SM BKN045 PROB30 3009/3012 6SM -SHRA
     FM301800 11009KT P6SM OVC025
     FM302100 10009KT P6SM OVC020=

USA.gov is the U.S. government's official web portal to all federal, state and local government web resources and services.